createdAt,value
2024-05-09T00:00:15.590Z,23.44
2024-05-09T00:01:11.515Z,23.43
2024-05-09T00:02:10.464Z,23.44
2024-05-09T00:03:11.746Z,23.44
2024-05-09T00:04:10.531Z,23.44
2024-05-09T00:05:10.723Z,23.45
2024-05-09T00:06:10.548Z,23.44
2024-05-09T00:07:10.502Z,23.45
2024-05-09T00:08:10.787Z,23.45
2024-05-09T00:09:10.530Z,23.44
2024-05-09T00:10:18.243Z,23.44
2024-05-09T00:11:11.635Z,23.44
2024-05-09T00:12:10.643Z,23.43
2024-05-09T00:13:11.231Z,23.44
2024-05-09T00:14:10.639Z,23.44
2024-05-09T00:15:10.610Z,23.44
2024-05-09T00:16:10.628Z,23.43
2024-05-09T00:17:10.673Z,23.44
2024-05-09T00:18:10.778Z,23.44
2024-05-09T00:19:10.884Z,23.44
2024-05-09T00:20:17.606Z,23.43
2024-05-09T00:21:11.848Z,23.44
2024-05-09T00:22:11.035Z,23.44
2024-05-09T00:23:11.968Z,23.43
2024-05-09T00:24:10.908Z,23.43
2024-05-09T00:25:10.816Z,23.44
2024-05-09T00:26:10.944Z,23.44
2024-05-09T00:27:13.241Z,23.44
2024-05-09T00:28:11.091Z,23.44
2024-05-09T00:29:11.152Z,23.43
2024-05-09T00:30:17.480Z,23.43
2024-05-09T00:31:12.202Z,23.43
2024-05-09T00:32:11.337Z,23.44
2024-05-09T00:33:11.919Z,23.43
2024-05-09T00:34:11.310Z,23.43
2024-05-09T00:35:11.269Z,23.43
2024-05-09T00:36:11.254Z,23.44
2024-05-09T00:37:11.268Z,23.43
2024-05-09T00:38:11.339Z,23.43
2024-05-09T00:39:11.284Z,23.42
2024-05-09T00:40:18.324Z,23.43
2024-05-09T00:41:12.364Z,23.43
2024-05-09T00:42:11.336Z,23.43
2024-05-09T00:43:12.101Z,23.43
2024-05-09T00:44:11.419Z,23.43
2024-05-09T00:45:11.384Z,23.43
2024-05-09T00:46:11.369Z,23.43
2024-05-09T00:47:11.490Z,23.43
2024-05-09T00:48:13.453Z,23.43
2024-05-09T00:49:11.534Z,23.43
2024-05-09T00:50:16.014Z,23.43
2024-05-09T00:51:12.546Z,23.42
2024-05-09T00:52:11.458Z,23.42
2024-05-09T00:53:11.760Z,23.43
2024-05-09T00:54:11.482Z,23.43
2024-05-09T00:55:11.497Z,23.42
2024-05-09T00:56:11.521Z,23.43
2024-05-09T00:57:11.526Z,23.43
2024-05-09T00:58:11.526Z,23.43
2024-05-09T00:59:11.593Z,23.43
2024-05-09T01:00:22.442Z,23.43
2024-05-09T01:01:12.642Z,23.42
2024-05-09T01:02:11.706Z,23.43
2024-05-09T01:03:13.456Z,23.42
2024-05-09T01:04:11.712Z,23.43
2024-05-09T01:05:11.745Z,23.42
2024-05-09T01:06:11.679Z,23.42
2024-05-09T01:07:11.705Z,23.42
2024-05-09T01:08:12.107Z,23.42
2024-05-09T01:09:11.716Z,23.42
2024-05-09T01:10:17.358Z,23.42
2024-05-09T01:11:12.788Z,23.42
2024-05-09T01:12:11.920Z,23.42
2024-05-09T01:13:11.783Z,23.42
2024-05-09T01:14:11.884Z,23.42
2024-05-09T01:15:11.817Z,23.42
2024-05-09T01:16:11.834Z,23.42
2024-05-09T01:17:12.007Z,23.42
2024-05-09T01:18:13.204Z,23.43
2024-05-09T01:19:12.054Z,23.42
2024-05-09T01:20:19.811Z,23.41
2024-05-09T01:21:13.136Z,23.42
2024-05-09T01:22:12.088Z,23.42
2024-05-09T01:23:12.577Z,23.42
2024-05-09T01:24:12.127Z,23.42
2024-05-09T01:25:12.139Z,23.42
2024-05-09T01:26:12.197Z,23.42
2024-05-09T01:27:12.186Z,23.42
2024-05-09T01:28:12.199Z,23.42
2024-05-09T01:29:12.291Z,23.42
2024-05-09T01:30:17.296Z,23.42
2024-05-09T01:31:13.322Z,23.42
2024-05-09T01:32:12.432Z,23.42
2024-05-09T01:33:13.162Z,23.43
2024-05-09T01:34:13.110Z,23.42
2024-05-09T01:35:12.424Z,23.42
2024-05-09T01:36:12.399Z,23.42
2024-05-09T01:37:12.427Z,23.42
2024-05-09T01:38:12.503Z,23.42
2024-05-09T01:39:12.453Z,23.41
2024-05-09T01:40:18.407Z,23.42
2024-05-09T01:41:13.565Z,23.41
2024-05-09T01:42:12.550Z,23.42
2024-05-09T01:43:12.582Z,23.41
2024-05-09T01:44:12.607Z,23.41
2024-05-09T01:45:12.584Z,23.42
2024-05-09T01:46:12.625Z,23.41
2024-05-09T01:47:12.721Z,23.42
2024-05-09T01:48:12.822Z,23.41
2024-05-09T01:49:12.804Z,23.41
2024-05-09T01:50:16.359Z,23.41
2024-05-09T01:51:12.886Z,23.41
2024-05-09T01:52:12.676Z,23.41
2024-05-09T01:53:13.265Z,23.41
2024-05-09T01:54:12.688Z,23.42
2024-05-09T01:55:12.694Z,23.41
2024-05-09T01:56:12.748Z,23.41
2024-05-09T01:57:12.736Z,23.41
2024-05-09T01:58:12.741Z,23.41
2024-05-09T01:59:12.770Z,23.41
2024-05-09T02:00:15.691Z,23.41
2024-05-09T02:01:13.831Z,23.41
2024-05-09T02:02:12.897Z,23.40
2024-05-09T02:03:15.676Z,23.41
2024-05-09T02:04:13.019Z,23.41
2024-05-09T02:05:12.911Z,23.41
2024-05-09T02:06:12.855Z,23.41
2024-05-09T02:07:12.865Z,23.41
2024-05-09T02:08:12.974Z,23.40
2024-05-09T02:09:12.878Z,23.41
2024-05-09T02:10:20.168Z,23.41
2024-05-09T02:11:14.017Z,23.40
2024-05-09T02:12:13.086Z,23.40
2024-05-09T02:13:13.019Z,23.41
2024-05-09T02:14:12.999Z,23.40
2024-05-09T02:15:12.977Z,23.40
2024-05-09T02:16:12.982Z,23.41
2024-05-09T02:17:13.091Z,23.41
2024-05-09T02:18:13.636Z,23.41
2024-05-09T02:19:13.230Z,23.40
2024-05-09T02:20:18.955Z,23.40
2024-05-09T02:21:14.088Z,23.40
2024-05-09T02:22:13.087Z,23.40
2024-05-09T02:23:13.170Z,23.40
2024-05-09T02:24:13.092Z,23.40
2024-05-09T02:25:13.112Z,23.40
2024-05-09T02:26:13.188Z,23.40
2024-05-09T02:27:13.155Z,23.39
2024-05-09T02:28:13.158Z,23.39
2024-05-09T02:29:13.261Z,23.40
2024-05-09T02:30:19.078Z,23.40
2024-05-09T02:31:14.192Z,23.40
2024-05-09T02:32:13.333Z,23.40
2024-05-09T02:33:14.472Z,23.40
2024-05-09T02:34:13.361Z,23.40
2024-05-09T02:35:13.249Z,23.40
2024-05-09T02:36:13.215Z,23.40
2024-05-09T02:37:13.233Z,23.40
2024-05-09T02:38:13.716Z,23.40
2024-05-09T02:39:13.241Z,23.41
2024-05-09T02:40:14.931Z,23.40
2024-05-09T02:41:14.343Z,23.39
2024-05-09T02:42:13.276Z,23.39
2024-05-09T02:43:13.406Z,23.40
2024-05-09T02:44:13.427Z,23.40
2024-05-09T02:45:13.291Z,23.40
2024-05-09T02:46:13.308Z,23.40
2024-05-09T02:47:13.448Z,23.40
2024-05-09T02:48:14.114Z,23.40
2024-05-09T02:49:13.507Z,23.40
2024-05-09T02:51:13.370Z,23.41
2024-05-09T02:52:13.394Z,23.40
2024-05-09T02:53:14.036Z,23.40
2024-05-09T02:54:13.529Z,23.40
2024-05-09T02:55:13.562Z,23.40
2024-05-09T02:56:13.697Z,23.40
2024-05-09T02:57:13.720Z,23.40
2024-05-09T02:58:13.787Z,23.40
2024-05-09T02:59:13.928Z,23.41
2024-05-09T03:00:19.072Z,23.40
2024-05-09T03:01:14.968Z,23.40
2024-05-09T03:02:14.094Z,23.40
2024-05-09T03:03:15.548Z,23.41
2024-05-09T03:04:14.042Z,23.41
2024-05-09T03:05:14.081Z,23.40
2024-05-09T03:06:14.045Z,23.40
2024-05-09T03:07:14.051Z,23.41
2024-05-09T03:08:14.257Z,23.40
2024-05-09T03:09:14.067Z,23.40
2024-05-09T03:10:21.942Z,23.41
2024-05-09T03:11:15.218Z,23.41
2024-05-09T03:12:14.163Z,23.41
2024-05-09T03:13:15.580Z,23.41
2024-05-09T03:14:14.162Z,23.40
2024-05-09T03:15:14.161Z,23.41
2024-05-09T03:16:14.190Z,23.41
2024-05-09T03:17:14.201Z,23.41
2024-05-09T03:18:14.404Z,23.40
2024-05-09T03:19:14.499Z,23.40
2024-05-09T03:20:20.423Z,23.40
2024-05-09T03:21:15.434Z,23.41
2024-05-09T03:22:14.406Z,23.41
2024-05-09T03:23:14.438Z,23.41
2024-05-09T03:24:14.424Z,23.41
2024-05-09T03:25:14.441Z,23.41
2024-05-09T03:26:14.448Z,23.41
2024-05-09T03:27:14.465Z,23.41
2024-05-09T03:28:14.479Z,23.41
2024-05-09T03:29:14.592Z,23.41
2024-05-09T03:31:14.490Z,23.41
2024-05-09T03:32:14.604Z,23.41
2024-05-09T03:33:15.566Z,23.41
2024-05-09T03:34:14.587Z,23.41
2024-05-09T03:35:14.662Z,23.41
2024-05-09T03:36:14.620Z,23.41
2024-05-09T03:37:14.666Z,23.41
2024-05-09T03:38:14.907Z,23.41
2024-05-09T03:39:14.719Z,23.41
2024-05-09T03:40:20.835Z,23.41
2024-05-09T03:41:15.811Z,23.40
2024-05-09T03:42:14.777Z,23.40
2024-05-09T03:43:14.780Z,23.41
2024-05-09T03:44:14.811Z,23.41
2024-05-09T03:45:14.810Z,23.40
2024-05-09T03:46:14.812Z,23.41
2024-05-09T03:47:14.945Z,23.41
2024-05-09T03:48:14.991Z,23.40
2024-05-09T03:49:14.979Z,23.41
2024-05-09T03:50:22.036Z,23.41
2024-05-09T03:51:15.919Z,23.40
2024-05-09T03:52:14.903Z,23.41
2024-05-09T03:53:15.073Z,23.40
2024-05-09T03:54:14.958Z,23.40
2024-05-09T03:55:14.942Z,23.40
2024-05-09T03:56:14.990Z,23.41
2024-05-09T03:57:14.974Z,23.40
2024-05-09T03:58:14.993Z,23.40
2024-05-09T03:59:15.202Z,23.41
2024-05-09T04:00:21.970Z,23.40
2024-05-09T04:01:16.085Z,23.40
2024-05-09T04:02:15.128Z,23.40
2024-05-09T04:03:15.452Z,23.39
2024-05-09T04:04:15.093Z,23.40
2024-05-09T04:05:15.127Z,23.40
2024-05-09T04:06:15.087Z,23.40
2024-05-09T04:07:15.122Z,23.40
2024-05-09T04:08:15.649Z,23.40
2024-05-09T04:09:15.144Z,23.41
2024-05-09T04:10:23.996Z,23.40
2024-05-09T04:11:16.222Z,23.39
2024-05-09T04:12:15.333Z,23.40
2024-05-09T04:13:15.214Z,23.40
2024-05-09T04:14:15.254Z,23.40
2024-05-09T04:15:15.248Z,23.40
2024-05-09T04:16:15.625Z,23.41
2024-05-09T04:17:15.406Z,23.40
2024-05-09T04:18:15.373Z,23.40
2024-05-09T04:19:15.481Z,23.40
2024-05-09T04:20:28.234Z,23.40
2024-05-09T04:21:16.465Z,23.39
2024-05-09T04:22:15.433Z,23.40
2024-05-09T04:23:15.485Z,23.40
2024-05-09T04:24:15.464Z,23.40
2024-05-09T04:25:15.474Z,23.40
2024-05-09T04:26:15.648Z,23.41
2024-05-09T04:27:15.518Z,23.40
2024-05-09T04:28:15.530Z,23.40
2024-05-09T04:29:15.605Z,23.40
2024-05-09T04:30:21.889Z,23.40
2024-05-09T04:31:16.642Z,23.39
2024-05-09T04:32:15.760Z,23.40
2024-05-09T04:33:15.893Z,23.39
2024-05-09T04:34:15.884Z,23.40
2024-05-09T04:35:15.752Z,23.40
2024-05-09T04:36:15.710Z,23.40
2024-05-09T04:37:15.746Z,23.40
2024-05-09T04:38:16.079Z,23.40
2024-05-09T04:39:15.755Z,23.41
2024-05-09T04:40:24.255Z,23.40
2024-05-09T04:41:16.856Z,23.40
2024-05-09T04:42:15.838Z,23.40
2024-05-09T04:43:15.881Z,23.40
2024-05-09T04:44:15.951Z,23.40
2024-05-09T04:45:15.871Z,23.40
2024-05-09T04:46:15.887Z,23.40
2024-05-09T04:47:16.035Z,23.39
2024-05-09T04:48:16.050Z,23.40
2024-05-09T04:49:16.041Z,23.40
2024-05-09T04:50:25.205Z,23.40
2024-05-09T04:51:16.983Z,23.39
2024-05-09T04:52:24.305Z,23.37
2024-05-09T04:53:24.446Z,23.38
2024-05-09T04:54:33.690Z,23.39
2024-05-09T04:55:25.408Z,23.39
2024-05-09T04:56:24.483Z,23.39
2024-05-09T04:57:24.418Z,23.39
2024-05-09T04:58:24.450Z,23.39
2024-05-09T04:59:24.661Z,23.39
2024-05-09T05:00:32.012Z,23.40
2024-05-09T05:01:25.573Z,23.38
2024-05-09T05:02:24.612Z,23.39
2024-05-09T05:03:24.846Z,23.39
2024-05-09T05:04:24.636Z,23.40
2024-05-09T05:05:24.611Z,23.40
2024-05-09T05:06:24.624Z,23.40
2024-05-09T05:07:24.639Z,23.40
2024-05-09T05:08:24.722Z,23.40
2024-05-09T05:09:24.696Z,23.40
2024-05-09T05:10:33.055Z,23.40
2024-05-09T05:11:25.896Z,23.41
2024-05-09T05:12:24.952Z,23.40
2024-05-09T05:13:25.329Z,23.40
2024-05-09T05:14:24.899Z,23.40
2024-05-09T05:15:24.883Z,23.40
2024-05-09T05:16:24.896Z,23.40
2024-05-09T05:17:24.983Z,23.40
2024-05-09T05:18:25.062Z,23.40
2024-05-09T05:19:25.103Z,23.40
2024-05-09T05:20:32.562Z,23.40
2024-05-09T05:21:26.185Z,23.40
2024-05-09T05:22:24.989Z,23.40
2024-05-09T05:23:25.071Z,23.39
2024-05-09T05:24:25.010Z,23.39
2024-05-09T05:25:25.040Z,23.39
2024-05-09T05:26:25.091Z,23.41
2024-05-09T05:27:25.077Z,23.40
2024-05-09T05:28:25.106Z,23.40
2024-05-09T05:29:25.183Z,23.40
2024-05-09T05:30:29.228Z,23.41
2024-05-09T05:31:26.287Z,23.39
2024-05-09T05:32:25.321Z,23.40
2024-05-09T05:33:25.314Z,23.40
2024-05-09T05:34:25.258Z,23.40
2024-05-09T05:35:25.396Z,23.40
2024-05-09T05:36:25.288Z,23.41
2024-05-09T05:37:25.298Z,23.41
2024-05-09T05:38:28.112Z,23.41
2024-05-09T05:39:25.344Z,23.41
2024-05-09T05:40:33.007Z,23.41
2024-05-09T05:41:26.442Z,23.41
2024-05-09T05:42:25.408Z,23.41
2024-05-09T05:43:25.437Z,23.41
2024-05-09T05:44:25.537Z,23.41
2024-05-09T05:45:25.474Z,23.41
2024-05-09T05:46:25.485Z,23.41
2024-05-09T05:47:25.614Z,23.41
2024-05-09T05:48:25.648Z,23.41
2024-05-09T05:49:25.739Z,23.41
2024-05-09T05:50:32.489Z,23.41
2024-05-09T05:51:26.700Z,23.40
2024-05-09T05:52:25.697Z,23.41
2024-05-09T05:53:25.780Z,23.41
2024-05-09T05:54:25.748Z,23.41
2024-05-09T05:55:25.765Z,23.42
2024-05-09T05:56:25.826Z,23.42
2024-05-09T05:57:25.786Z,23.41
2024-05-09T05:58:25.814Z,23.41
2024-05-09T05:59:25.930Z,23.42
2024-05-09T06:00:34.057Z,23.42
2024-05-09T06:01:27.066Z,23.42
2024-05-09T06:02:26.054Z,23.41
2024-05-09T06:03:26.051Z,23.42
2024-05-09T06:04:26.073Z,23.43
2024-05-09T06:05:27.654Z,23.43
2024-05-09T06:06:26.068Z,23.42
2024-05-09T06:07:26.093Z,23.43
2024-05-09T06:08:28.886Z,23.43
2024-05-09T06:09:26.133Z,23.43
2024-05-09T06:10:34.607Z,23.43
2024-05-09T06:11:27.270Z,23.42
2024-05-09T06:12:26.293Z,23.43
2024-05-09T06:13:26.227Z,23.43
2024-05-09T06:14:26.290Z,23.43
2024-05-09T06:15:26.287Z,23.43
2024-05-09T06:16:26.308Z,23.43
2024-05-09T06:17:26.480Z,23.43
2024-05-09T06:18:26.583Z,23.43
2024-05-09T06:19:26.573Z,23.43
2024-05-09T06:20:34.756Z,23.44
2024-05-09T06:21:27.561Z,23.43
2024-05-09T06:22:26.538Z,23.44
2024-05-09T06:23:26.594Z,23.44
2024-05-09T06:24:26.586Z,23.44
2024-05-09T06:25:26.601Z,23.44
2024-05-09T06:26:26.643Z,23.45
2024-05-09T06:27:26.625Z,23.45
2024-05-09T06:28:26.659Z,23.45
2024-05-09T06:29:26.814Z,23.45
2024-05-09T06:30:35.312Z,23.44
2024-05-09T06:31:27.781Z,23.44
2024-05-09T06:32:26.966Z,23.45
2024-05-09T06:33:27.004Z,23.45
2024-05-09T06:34:27.094Z,23.46
2024-05-09T06:35:26.903Z,23.46
2024-05-09T06:36:26.886Z,23.46
2024-05-09T06:37:26.907Z,23.46
2024-05-09T06:38:26.939Z,23.46
2024-05-09T06:39:26.962Z,23.47
2024-05-09T06:40:35.772Z,23.47
2024-05-09T06:41:28.318Z,23.47
2024-05-09T06:42:27.084Z,23.47
2024-05-09T06:43:27.107Z,23.47
2024-05-09T06:44:27.230Z,23.48
2024-05-09T06:45:27.148Z,23.48
2024-05-09T06:46:27.179Z,23.48
2024-05-09T06:47:27.315Z,23.49
2024-05-09T06:48:27.342Z,23.49
2024-05-09T06:49:27.413Z,23.48
2024-05-09T06:50:28.440Z,23.50
2024-05-09T06:51:27.381Z,23.49
2024-05-09T06:52:27.388Z,23.49
2024-05-09T06:53:27.471Z,23.49
2024-05-09T06:54:27.430Z,23.50
2024-05-09T06:55:27.448Z,23.50
2024-05-09T06:56:27.512Z,23.50
2024-05-09T06:57:27.503Z,23.50
2024-05-09T06:58:27.509Z,23.50
2024-05-09T06:59:27.623Z,23.50
2024-05-09T07:00:35.353Z,23.52
2024-05-09T07:01:28.620Z,23.50
2024-05-09T07:02:27.629Z,23.51
2024-05-09T07:03:27.720Z,23.51
2024-05-09T07:04:27.741Z,23.51
2024-05-09T07:05:27.719Z,23.51
2024-05-09T07:06:27.671Z,23.51
2024-05-09T07:07:27.717Z,23.51
2024-05-09T07:08:27.818Z,23.52
2024-05-09T07:09:27.758Z,23.52
2024-05-09T07:10:32.924Z,23.53
2024-05-09T07:11:28.944Z,23.53
2024-05-09T07:12:28.042Z,23.53
2024-05-09T07:13:27.927Z,23.53
2024-05-09T07:14:28.015Z,23.54
2024-05-09T07:15:27.950Z,23.55
2024-05-09T07:16:27.975Z,23.55
2024-05-09T07:17:28.188Z,23.55
2024-05-09T07:18:28.245Z,23.55
2024-05-09T07:19:28.174Z,23.55
2024-05-09T07:20:34.320Z,23.56
2024-05-09T07:21:29.117Z,23.55
2024-05-09T07:22:28.137Z,23.56
2024-05-09T07:23:28.306Z,23.57
2024-05-09T07:24:28.176Z,23.57
2024-05-09T07:25:28.218Z,23.57
2024-05-09T07:26:28.308Z,23.57
2024-05-09T07:27:28.234Z,23.57
2024-05-09T07:28:28.257Z,23.57
2024-05-09T07:29:28.398Z,23.56
2024-05-09T07:30:33.325Z,23.57
2024-05-09T07:31:29.382Z,23.57
2024-05-09T07:32:28.580Z,23.57
2024-05-09T07:33:28.742Z,23.57
2024-05-09T07:34:28.519Z,23.57
2024-05-09T07:35:28.729Z,23.58
2024-05-09T07:36:28.476Z,23.59
2024-05-09T07:37:28.504Z,23.59
2024-05-09T07:38:28.547Z,23.60
2024-05-09T07:39:28.539Z,23.60
2024-05-09T07:40:35.142Z,23.62
2024-05-09T07:41:29.665Z,23.67
2024-05-09T07:42:28.641Z,23.70
2024-05-09T07:43:28.655Z,23.71
2024-05-09T07:44:28.815Z,23.70
2024-05-09T07:45:45.086Z,23.72
2024-05-09T07:47:36.952Z,23.74
2024-05-09T07:48:57.128Z,23.76
2024-05-09T07:50:01.176Z,23.78
2024-05-09T07:53:32.513Z,23.84
2024-05-09T07:53:40.270Z,23.83
2024-05-09T07:54:30.016Z,23.85
2024-05-09T07:55:29.049Z,23.85
2024-05-09T07:56:29.273Z,23.86
2024-05-09T07:57:28.959Z,23.86
2024-05-09T07:58:28.930Z,23.86
2024-05-09T07:59:28.952Z,23.87
2024-05-09T08:00:31.698Z,23.86
2024-05-09T08:01:29.062Z,23.86
2024-05-09T08:02:29.162Z,23.86
2024-05-09T08:03:29.147Z,23.86
2024-05-09T08:04:29.235Z,23.86
2024-05-09T08:05:29.256Z,23.87
2024-05-09T08:06:29.157Z,23.86
2024-05-09T08:07:29.119Z,23.86
2024-05-09T08:08:29.120Z,23.86
2024-05-09T08:09:29.178Z,23.87
2024-05-09T08:10:29.478Z,23.86
2024-05-09T08:11:29.202Z,23.86
2024-05-09T08:12:29.242Z,23.87
2024-05-09T08:13:29.209Z,23.85
2024-05-09T08:14:29.228Z,23.85
2024-05-09T08:15:29.493Z,23.84
2024-05-09T08:16:29.452Z,23.84
2024-05-09T08:17:29.346Z,23.83
2024-05-09T08:18:29.553Z,23.84
2024-05-09T08:19:29.371Z,23.84
2024-05-09T08:20:33.660Z,23.85
2024-05-09T08:21:30.458Z,23.84
2024-05-09T08:22:29.400Z,23.85
2024-05-09T08:23:29.422Z,23.85
2024-05-09T08:24:29.469Z,23.86
2024-05-09T08:25:29.461Z,23.87
2024-05-09T08:26:29.487Z,23.88
2024-05-09T08:27:29.578Z,23.89
2024-05-09T08:28:29.540Z,23.90
2024-05-09T08:29:29.557Z,23.92
2024-05-09T08:30:35.823Z,23.93
2024-05-09T08:31:30.660Z,23.93
2024-05-09T08:32:29.753Z,23.95
2024-05-09T08:33:29.852Z,23.94
2024-05-09T08:34:29.844Z,23.95
2024-05-09T08:35:29.656Z,23.96
2024-05-09T08:36:29.721Z,23.96
2024-05-09T08:37:34.916Z,23.97
2024-05-09T08:38:30.732Z,23.96
2024-05-09T08:39:29.773Z,23.96
2024-05-09T08:40:34.825Z,23.97
2024-05-09T08:41:30.803Z,23.96
2024-05-09T08:42:29.837Z,23.96
2024-05-09T08:43:29.881Z,23.97
2024-05-09T08:44:29.849Z,23.96
2024-05-09T08:45:30.032Z,23.96
2024-05-09T08:46:30.015Z,23.97
2024-05-09T08:47:29.982Z,23.98
2024-05-09T08:48:30.322Z,23.99
2024-05-09T08:49:30.005Z,23.99
2024-05-09T08:50:37.703Z,23.99
2024-05-09T08:51:31.018Z,24.00
2024-05-09T08:52:30.002Z,24.00
2024-05-09T08:53:30.020Z,24.01
2024-05-09T08:54:30.049Z,24.00
2024-05-09T08:55:31.014Z,24.01
2024-05-09T08:56:30.079Z,24.02
2024-05-09T08:57:30.151Z,24.02
2024-05-09T08:58:30.123Z,24.03
2024-05-09T08:59:30.156Z,24.03
2024-05-09T09:00:36.702Z,24.04
2024-05-09T09:01:31.262Z,24.04
2024-05-09T09:02:30.316Z,24.05
2024-05-09T09:03:30.520Z,24.06
2024-05-09T09:04:30.446Z,24.07
2024-05-09T09:05:30.317Z,24.08
2024-05-09T09:06:30.330Z,24.08
2024-05-09T09:07:30.399Z,24.09
2024-05-09T09:08:30.317Z,24.10
2024-05-09T09:09:30.426Z,24.10
2024-05-09T09:10:32.375Z,24.11
2024-05-09T09:11:30.402Z,24.12
2024-05-09T09:12:30.473Z,24.12
2024-05-09T09:13:30.419Z,24.13
2024-05-09T09:14:30.425Z,24.14
2024-05-09T09:15:30.508Z,24.14
2024-05-09T09:16:30.521Z,24.15
2024-05-09T09:17:30.567Z,24.14
2024-05-09T09:18:31.082Z,24.15
2024-05-09T09:19:30.613Z,24.16
2024-05-09T09:20:36.219Z,24.15
2024-05-09T09:21:31.706Z,24.15
2024-05-09T09:22:30.541Z,24.16
2024-05-09T09:23:30.865Z,24.17
2024-05-09T09:24:30.620Z,24.17
2024-05-09T09:25:30.622Z,24.18
2024-05-09T09:26:30.618Z,24.18
2024-05-09T09:27:30.650Z,24.19
2024-05-09T09:28:30.658Z,24.20
2024-05-09T09:29:30.659Z,24.19
2024-05-09T09:30:36.827Z,24.20
2024-05-09T09:31:31.814Z,24.21
2024-05-09T09:32:30.763Z,24.20
2024-05-09T09:33:30.788Z,24.21
2024-05-09T09:34:31.168Z,24.21
2024-05-09T09:35:30.764Z,24.21
2024-05-09T09:36:30.842Z,24.22
2024-05-09T09:37:30.793Z,24.22
2024-05-09T09:38:30.828Z,24.23
2024-05-09T09:39:30.873Z,24.23
2024-05-09T09:40:32.970Z,24.24
2024-05-09T09:41:30.837Z,24.24
2024-05-09T09:42:30.873Z,24.24
2024-05-09T09:43:30.874Z,24.25
2024-05-09T09:44:30.889Z,24.25
2024-05-09T09:45:30.940Z,24.25
2024-05-09T09:46:31.058Z,24.26
2024-05-09T09:47:31.006Z,24.26
2024-05-09T09:48:31.215Z,24.25
2024-05-09T09:49:30.986Z,24.26
2024-05-09T09:50:34.539Z,24.26
2024-05-09T09:51:31.009Z,24.26
2024-05-09T09:52:31.079Z,24.27
2024-05-09T09:53:31.020Z,24.28
2024-05-09T09:54:31.091Z,24.28
2024-05-09T09:55:31.062Z,24.27
2024-05-09T09:56:31.044Z,24.28
2024-05-09T09:57:31.081Z,24.28
2024-05-09T09:58:31.116Z,24.27
2024-05-09T09:59:31.068Z,24.28
2024-05-09T10:00:33.373Z,24.28
2024-05-09T10:01:31.274Z,24.28
2024-05-09T10:02:31.302Z,24.28
2024-05-09T10:03:31.249Z,24.27
2024-05-09T10:04:31.208Z,24.28
2024-05-09T10:05:31.350Z,24.28
2024-05-09T10:06:31.166Z,24.28
2024-05-09T10:07:31.152Z,24.29
2024-05-09T10:08:31.172Z,24.29
2024-05-09T10:09:31.182Z,24.28
2024-05-09T10:10:32.993Z,24.29
2024-05-09T10:11:32.835Z,24.29
2024-05-09T10:12:31.274Z,24.30
2024-05-09T10:13:31.260Z,24.31
2024-05-09T10:14:31.249Z,24.30
2024-05-09T10:15:31.365Z,24.31
2024-05-09T10:16:31.309Z,24.31
2024-05-09T10:17:31.393Z,24.30
2024-05-09T10:18:32.748Z,24.31
2024-05-09T10:19:31.405Z,24.30
2024-05-09T10:20:32.939Z,24.30
2024-05-09T10:21:31.403Z,24.30
2024-05-09T10:22:31.333Z,24.30
2024-05-09T10:23:31.359Z,24.30
2024-05-09T10:24:31.373Z,24.31
2024-05-09T10:25:31.433Z,24.30
2024-05-09T10:26:31.386Z,24.31
2024-05-09T10:27:31.449Z,24.31
2024-05-09T10:28:31.443Z,24.30
2024-05-09T10:29:31.423Z,24.29
2024-05-09T10:30:35.927Z,24.30
2024-05-09T10:31:32.607Z,24.30
2024-05-09T10:32:31.564Z,24.30
2024-05-09T10:33:31.562Z,24.29
2024-05-09T10:34:31.511Z,24.30
2024-05-09T10:35:31.518Z,24.29
2024-05-09T10:36:31.557Z,24.30
2024-05-09T10:37:31.592Z,24.29
2024-05-09T10:38:31.528Z,24.30
2024-05-09T10:39:31.663Z,24.29
2024-05-09T10:40:32.164Z,24.29
2024-05-09T10:41:31.583Z,24.29
2024-05-09T10:42:31.661Z,24.29
2024-05-09T10:43:31.608Z,24.29
2024-05-09T10:44:31.624Z,24.28
2024-05-09T10:45:31.668Z,24.29
2024-05-09T10:46:31.781Z,24.28
2024-05-09T10:47:31.723Z,24.28
2024-05-09T10:48:31.828Z,24.29
2024-05-09T10:49:31.797Z,24.28
2024-05-09T10:50:34.274Z,24.29
2024-05-09T10:51:31.786Z,24.30
2024-05-09T10:52:31.840Z,24.29
2024-05-09T10:53:31.791Z,24.28
2024-05-09T10:54:31.829Z,24.30
2024-05-09T10:55:31.893Z,24.28
2024-05-09T10:56:31.821Z,24.28
2024-05-09T10:57:31.859Z,24.28
2024-05-09T10:58:31.854Z,24.28
2024-05-09T10:59:31.877Z,24.27
2024-05-09T11:00:35.853Z,24.27
2024-05-09T11:01:32.007Z,24.25
2024-05-09T11:02:32.150Z,24.26
2024-05-09T11:03:32.238Z,24.26
2024-05-09T11:04:31.954Z,24.25
2024-05-09T11:05:32.003Z,24.25
2024-05-09T11:06:31.989Z,24.26
2024-05-09T11:07:32.017Z,24.26
2024-05-09T11:08:32.068Z,24.25
2024-05-09T11:09:32.037Z,24.26
2024-05-09T11:10:34.309Z,24.26
2024-05-09T11:11:32.120Z,24.26
2024-05-09T11:12:32.050Z,24.25
2024-05-09T11:13:32.289Z,24.24
2024-05-09T11:14:32.031Z,24.23
2024-05-09T11:15:32.104Z,24.23
2024-05-09T11:16:32.079Z,24.22
2024-05-09T11:17:32.127Z,24.22
2024-05-09T11:18:36.201Z,24.22
2024-05-09T11:19:33.200Z,24.21
2024-05-09T11:20:35.018Z,24.21
2024-05-09T11:21:32.117Z,24.21
2024-05-09T11:22:32.124Z,24.22
2024-05-09T11:23:32.200Z,24.22
2024-05-09T11:24:32.154Z,24.22
2024-05-09T11:25:32.130Z,24.22
2024-05-09T11:26:32.154Z,24.21
2024-05-09T11:27:32.186Z,24.21
2024-05-09T11:28:32.172Z,24.21
2024-05-09T11:29:32.166Z,24.20
2024-05-09T11:30:32.773Z,24.20
2024-05-09T11:31:32.325Z,24.20
2024-05-09T11:32:32.291Z,24.20
2024-05-09T11:33:32.325Z,24.19
2024-05-09T11:34:32.335Z,24.19
2024-05-09T11:35:32.223Z,24.18
2024-05-09T11:36:32.297Z,24.18
2024-05-09T11:37:34.667Z,24.17
2024-05-09T11:38:32.258Z,24.16
2024-05-09T11:39:32.277Z,24.16
2024-05-09T11:40:34.510Z,24.16
2024-05-09T11:41:32.435Z,24.17
2024-05-09T11:42:32.493Z,24.17
2024-05-09T11:43:32.607Z,24.15
2024-05-09T11:44:32.483Z,24.16
2024-05-09T11:45:32.550Z,24.16
2024-05-09T11:46:32.522Z,24.16
2024-05-09T11:47:32.599Z,24.15
2024-05-09T11:48:32.875Z,24.15
2024-05-09T11:49:32.772Z,24.15
2024-05-09T11:50:35.551Z,24.14
2024-05-09T11:51:32.719Z,24.14
2024-05-09T11:52:32.654Z,24.14
2024-05-09T11:53:32.736Z,24.15
2024-05-09T11:54:32.741Z,24.14
2024-05-09T11:55:32.748Z,24.14
2024-05-09T11:56:32.749Z,24.14
2024-05-09T11:57:32.806Z,24.14
2024-05-09T11:58:32.741Z,24.14
2024-05-09T11:59:32.758Z,24.13
2024-05-09T12:00:36.771Z,24.13
2024-05-09T12:01:33.921Z,24.13
2024-05-09T12:02:32.846Z,24.12
2024-05-09T12:03:32.987Z,24.13
2024-05-09T12:04:32.987Z,24.13
2024-05-09T12:05:33.315Z,24.13
2024-05-09T12:06:32.895Z,24.13
2024-05-09T12:07:32.853Z,24.13
2024-05-09T12:08:32.878Z,24.13
2024-05-09T12:09:32.942Z,24.14
2024-05-09T12:10:35.412Z,24.13
2024-05-09T12:11:32.931Z,24.13
2024-05-09T12:12:35.364Z,24.12
2024-05-09T12:13:33.033Z,24.12
2024-05-09T12:14:32.921Z,24.13
2024-05-09T12:15:33.074Z,24.12
2024-05-09T12:16:33.158Z,24.13
2024-05-09T12:17:33.100Z,24.13
2024-05-09T12:18:33.051Z,24.12
2024-05-09T12:19:33.070Z,24.13
2024-05-09T12:20:37.304Z,24.13
2024-05-09T12:21:34.035Z,24.12
2024-05-09T12:22:32.998Z,24.12
2024-05-09T12:23:33.032Z,24.12
2024-05-09T12:24:33.068Z,24.12
2024-05-09T12:25:33.072Z,24.13
2024-05-09T12:26:33.061Z,24.13
2024-05-09T12:27:33.081Z,24.12
2024-05-09T12:28:33.361Z,24.12
2024-05-09T12:29:34.992Z,24.13
2024-05-09T12:30:38.004Z,24.12
2024-05-09T12:31:34.156Z,24.11
2024-05-09T12:32:33.200Z,24.11
2024-05-09T12:33:33.223Z,24.11
2024-05-09T12:34:33.174Z,24.11
2024-05-09T12:35:33.315Z,24.11
2024-05-09T12:36:33.164Z,24.11
2024-05-09T12:37:33.145Z,24.11
2024-05-09T12:38:33.163Z,24.12
2024-05-09T12:39:33.335Z,24.11
2024-05-09T12:40:36.950Z,24.11
2024-05-09T12:41:34.210Z,24.11
2024-05-09T12:42:33.911Z,24.10
2024-05-09T12:43:33.373Z,24.11
2024-05-09T12:44:33.217Z,24.11
2024-05-09T12:45:33.413Z,24.11
2024-05-09T12:46:33.335Z,24.11
2024-05-09T12:47:33.324Z,24.11
2024-05-09T12:48:33.416Z,24.11
2024-05-09T12:49:33.539Z,24.10
2024-05-09T12:50:34.539Z,24.12
2024-05-09T12:51:33.357Z,24.11
2024-05-09T12:52:33.328Z,24.10
2024-05-09T12:53:33.338Z,24.10
2024-05-09T12:54:33.384Z,24.11
2024-05-09T12:55:41.438Z,24.09
2024-05-09T12:56:34.365Z,24.10
2024-05-09T12:57:33.385Z,24.10